createdAt,value
2023-05-18T00:00:05.883Z,7.48
2023-05-18T00:02:32.748Z,7.34
2023-05-18T00:05:02.449Z,7.28
2023-05-18T00:07:34.454Z,7.20
2023-05-18T00:10:02.014Z,6.98
2023-05-18T00:12:28.992Z,7.02
2023-05-18T00:14:55.774Z,7.01
2023-05-18T00:17:22.572Z,6.89
2023-05-18T00:19:50.550Z,6.81
2023-05-18T00:22:20.333Z,6.91
2023-05-18T00:24:47.945Z,6.73
2023-05-18T00:27:15.209Z,6.73
2023-05-18T00:29:41.957Z,6.80
2023-05-18T00:32:08.686Z,6.65
2023-05-18T00:34:35.543Z,6.66
2023-05-18T00:37:02.491Z,6.69
2023-05-18T00:39:29.250Z,6.61
2023-05-18T00:41:56.081Z,6.53
2023-05-18T00:44:22.824Z,6.72
2023-05-18T00:46:50.350Z,6.78
2023-05-18T00:49:17.774Z,6.43
2023-05-18T00:51:45.842Z,6.41
2023-05-18T00:54:12.564Z,6.37
2023-05-18T00:56:42.637Z,6.29
2023-05-18T00:59:12.588Z,6.41
2023-05-18T01:01:44.271Z,6.44
2023-05-18T01:04:14.721Z,6.42
2023-05-18T01:06:42.407Z,6.35
2023-05-18T01:09:12.009Z,6.37
2023-05-18T01:12:07.977Z,6.37
2023-05-18T01:14:38.478Z,6.32
2023-05-18T01:17:36.745Z,6.23
2023-05-18T01:20:18.050Z,6.31
2023-05-18T01:23:15.252Z,6.33
2023-05-18T01:26:30.645Z,6.29
2023-05-18T01:28:59.593Z,6.19
2023-05-18T01:31:27.289Z,6.07
2023-05-18T01:33:54.073Z,6.10
2023-05-18T01:36:21.081Z,6.03
2023-05-18T01:38:48.129Z,6.12
2023-05-18T01:41:28.972Z,6.09
2023-05-18T01:44:20.048Z,5.99
2023-05-18T01:47:10.933Z,5.97
2023-05-18T01:49:46.728Z,5.51
2023-05-18T01:52:21.936Z,5.80
2023-05-18T01:54:51.979Z,5.74
2023-05-18T01:57:20.769Z,5.74
2023-05-18T01:59:48.206Z,5.70
2023-05-18T02:02:15.124Z,5.85
2023-05-18T02:04:41.941Z,5.81
2023-05-18T02:07:08.925Z,5.91
2023-05-18T02:09:35.647Z,5.84
2023-05-18T02:12:02.846Z,5.78
2023-05-18T02:14:29.629Z,5.47
2023-05-18T02:16:57.753Z,5.53
2023-05-18T02:19:25.714Z,5.57
2023-05-18T02:21:52.520Z,5.15
2023-05-18T02:24:19.252Z,5.35
2023-05-18T02:26:46.214Z,5.20
2023-05-18T02:29:14.810Z,5.36
2023-05-18T02:31:41.923Z,5.25
2023-05-18T02:34:09.389Z,5.32
2023-05-18T02:36:43.097Z,5.15
2023-05-18T02:39:10.688Z,5.15
2023-05-18T02:41:37.699Z,5.36
2023-05-18T02:44:05.042Z,5.34
2023-05-18T02:46:32.377Z,5.13
2023-05-18T02:49:00.076Z,4.98
2023-05-18T02:51:26.988Z,5.03
2023-05-18T02:53:53.932Z,5.14
2023-05-18T02:56:20.643Z,5.20
2023-05-18T02:58:47.709Z,4.94
2023-05-18T03:01:14.486Z,5.05
2023-05-18T03:03:42.596Z,4.76
2023-05-18T03:06:09.723Z,4.85
2023-05-18T03:08:41.764Z,5.01
2023-05-18T03:11:08.497Z,4.99
2023-05-18T03:13:35.359Z,4.98
2023-05-18T03:16:02.052Z,4.95
2023-05-18T03:18:28.747Z,4.98
2023-05-18T03:20:56.469Z,4.89
2023-05-18T03:23:23.645Z,4.86
2023-05-18T03:25:55.565Z,4.78
2023-05-18T03:28:22.807Z,4.82
2023-05-18T03:30:49.803Z,4.87
2023-05-18T03:33:17.067Z,4.89
2023-05-18T03:35:44.735Z,4.84
2023-05-18T03:38:12.229Z,4.81
2023-05-18T03:40:39.026Z,4.84
2023-05-18T03:43:05.856Z,4.82
2023-05-18T03:45:32.736Z,4.78
2023-05-18T03:47:59.706Z,4.71
2023-05-18T03:50:26.571Z,4.82
2023-05-18T03:52:53.438Z,4.76
2023-05-18T03:55:21.704Z,4.77
2023-05-18T03:57:49.073Z,4.76
2023-05-18T04:00:16.383Z,4.74
2023-05-18T04:02:43.347Z,4.72
2023-05-18T04:05:10.532Z,4.71
2023-05-18T04:07:44.429Z,4.80
2023-05-18T04:10:12.361Z,4.86
2023-05-18T04:12:39.742Z,5.01
2023-05-18T04:15:07.244Z,5.07
2023-05-18T04:17:35.808Z,5.03
2023-05-18T04:20:13.347Z,4.95
2023-05-18T04:22:46.875Z,4.94
2023-05-18T04:25:14.831Z,4.98
2023-05-18T04:27:42.470Z,5.06
2023-05-18T04:30:11.789Z,5.05
2023-05-18T04:32:39.061Z,5.08
2023-05-18T04:35:07.312Z,5.10
2023-05-18T04:37:34.551Z,5.17
2023-05-18T04:40:02.623Z,5.19
2023-05-18T04:42:29.525Z,5.22
2023-05-18T04:44:56.304Z,5.35
2023-05-18T04:47:24.282Z,5.32
2023-05-18T04:49:52.687Z,5.42
2023-05-18T04:52:20.064Z,5.48
2023-05-18T04:54:46.887Z,5.55
2023-05-18T04:57:14.023Z,5.52
2023-05-18T04:59:41.721Z,5.64
2023-05-18T05:02:08.588Z,5.70
2023-05-18T05:04:35.500Z,5.78
2023-05-18T05:07:02.208Z,5.83
2023-05-18T05:09:32.105Z,5.92
2023-05-18T05:11:58.835Z,6.09
2023-05-18T05:14:25.552Z,6.23
2023-05-18T05:16:52.625Z,6.12
2023-05-18T05:19:19.772Z,6.13
2023-05-18T05:21:46.617Z,6.26
2023-05-18T05:24:13.508Z,6.37
2023-05-18T05:26:40.688Z,6.41
2023-05-18T05:29:07.551Z,6.71
2023-05-18T05:31:34.998Z,6.78
2023-05-18T05:34:02.085Z,6.80
2023-05-18T05:36:29.260Z,6.97
2023-05-18T05:38:56.314Z,6.94
2023-05-18T05:41:23.472Z,7.00
2023-05-18T05:43:50.220Z,6.99
2023-05-18T05:46:17.956Z,7.19
2023-05-18T05:48:44.804Z,7.20
2023-05-18T05:51:12.326Z,7.07
2023-05-18T05:53:39.075Z,7.30
2023-05-18T05:56:08.174Z,7.35
2023-05-18T05:58:34.974Z,7.14
2023-05-18T06:01:02.099Z,7.18
2023-05-18T06:03:29.629Z,7.36
2023-05-18T06:05:56.944Z,7.28
2023-05-18T06:08:24.617Z,7.27
2023-05-18T06:10:51.636Z,7.28
2023-05-18T06:13:18.662Z,7.28
2023-05-18T06:15:45.351Z,7.28
2023-05-18T06:18:13.580Z,7.51
2023-05-18T06:20:40.905Z,7.60
2023-05-18T06:23:07.626Z,7.76
2023-05-18T06:25:35.608Z,7.77
2023-05-18T06:28:02.366Z,7.88
2023-05-18T06:30:29.166Z,7.84
2023-05-18T06:32:56.143Z,8.05
2023-05-18T06:35:24.295Z,8.06
2023-05-18T06:37:51.231Z,8.20
2023-05-18T06:40:18.153Z,8.27
2023-05-18T06:42:44.957Z,8.35
2023-05-18T06:45:12.325Z,8.48
2023-05-18T06:47:39.228Z,8.70
2023-05-18T06:50:06.725Z,8.61
2023-05-18T06:52:33.745Z,8.62
2023-05-18T06:55:01.603Z,8.66
2023-05-18T06:57:28.659Z,8.83
2023-05-18T06:59:55.503Z,8.94
2023-05-18T07:02:22.542Z,9.01
2023-05-18T07:04:49.874Z,9.07
2023-05-18T07:07:20.517Z,9.21
2023-05-18T07:09:50.055Z,9.22
2023-05-18T07:12:16.788Z,9.21
2023-05-18T07:14:43.604Z,9.30
2023-05-18T07:17:10.384Z,9.55
2023-05-18T07:19:37.270Z,9.72
2023-05-18T07:22:04.895Z,9.79
2023-05-18T07:24:31.869Z,9.78
2023-05-18T07:27:00.761Z,9.69
2023-05-18T07:29:27.987Z,9.84
2023-05-18T07:31:54.875Z,9.87
2023-05-18T07:34:21.924Z,9.87
2023-05-18T07:36:48.750Z,10.11
2023-05-18T07:39:19.488Z,10.18
2023-05-18T07:41:47.604Z,10.32
2023-05-18T07:44:14.820Z,10.33
2023-05-18T07:46:42.325Z,10.23
2023-05-18T07:49:09.122Z,10.25
2023-05-18T07:51:35.955Z,10.37
2023-05-18T07:54:02.936Z,10.47
2023-05-18T07:56:29.747Z,10.59
2023-05-18T07:58:56.558Z,10.58
2023-05-18T08:01:27.599Z,10.76
2023-05-18T08:03:54.919Z,11.01
2023-05-18T08:06:21.772Z,10.96
2023-05-18T08:08:48.781Z,10.92
2023-05-18T08:11:15.576Z,11.05
2023-05-18T08:13:42.542Z,11.14
2023-05-18T08:16:12.158Z,11.40
2023-05-18T08:18:39.672Z,11.51
2023-05-18T08:21:09.347Z,11.39
2023-05-18T08:23:36.975Z,11.46
2023-05-18T08:26:03.852Z,11.57
2023-05-18T08:28:31.350Z,11.59
2023-05-18T08:30:58.461Z,11.57
2023-05-18T08:33:26.247Z,11.84
2023-05-18T08:35:54.420Z,12.05
2023-05-18T08:38:21.302Z,11.95
2023-05-18T08:40:59.952Z,12.05
2023-05-18T08:43:33.829Z,12.21
2023-05-18T08:46:33.777Z,12.11
2023-05-18T08:49:02.497Z,12.25
2023-05-18T08:51:32.147Z,12.45
2023-05-18T08:53:59.389Z,12.52
2023-05-18T08:56:29.346Z,12.55
2023-05-18T08:58:56.933Z,12.46
2023-05-18T09:01:30.315Z,12.61
2023-05-18T09:03:58.385Z,13.01
2023-05-18T09:06:25.206Z,12.89
2023-05-18T09:08:53.576Z,12.98
2023-05-18T09:11:21.865Z,13.19
2023-05-18T09:13:51.849Z,13.17
2023-05-18T09:16:21.666Z,13.17
2023-05-18T09:18:48.541Z,13.10
2023-05-18T09:21:15.555Z,13.16
2023-05-18T09:23:44.492Z,13.13
2023-05-18T09:26:12.975Z,13.49
2023-05-18T09:28:42.096Z,13.52
2023-05-18T09:31:12.884Z,13.52
2023-05-18T09:33:40.585Z,13.63
2023-05-18T09:36:08.605Z,13.64
2023-05-18T09:38:39.694Z,13.41
2023-05-18T09:41:15.286Z,13.46
2023-05-18T09:43:44.003Z,13.51
2023-05-18T09:46:12.479Z,13.63
2023-05-18T09:48:45.469Z,13.88
2023-05-18T09:51:19.101Z,13.68
2023-05-18T09:53:49.694Z,13.50
2023-05-18T09:56:17.934Z,13.70
2023-05-18T09:58:45.930Z,14.01
2023-05-18T10:01:12.812Z,13.82
2023-05-18T10:03:39.908Z,13.92
2023-05-18T10:06:08.405Z,13.76
2023-05-18T10:08:36.266Z,13.88
2023-05-18T10:11:04.077Z,14.02
2023-05-18T10:13:32.166Z,13.98
2023-05-18T10:16:00.763Z,13.95
2023-05-18T10:18:29.588Z,13.78
2023-05-18T10:21:00.363Z,13.91
2023-05-18T10:23:29.832Z,14.16
2023-05-18T10:25:57.540Z,14.23
2023-05-18T10:28:28.924Z,13.97
2023-05-18T10:30:57.780Z,13.98
2023-05-18T10:33:29.656Z,14.04
2023-05-18T10:35:57.506Z,14.15
2023-05-18T10:38:26.735Z,14.36
2023-05-18T10:40:56.558Z,14.06
2023-05-18T10:43:28.166Z,14.21
2023-05-18T10:45:57.446Z,14.26
2023-05-18T10:48:25.952Z,14.11
2023-05-18T10:50:54.130Z,14.21
2023-05-18T10:53:32.405Z,14.33
2023-05-18T10:55:59.648Z,14.39
2023-05-18T10:58:27.594Z,14.45
2023-05-18T11:00:56.654Z,14.36
2023-05-18T11:03:25.992Z,14.15
2023-05-18T11:06:11.155Z,14.20
2023-05-18T11:08:49.491Z,14.32
2023-05-18T11:11:18.957Z,14.49
2023-05-18T11:13:49.013Z,14.57
2023-05-18T11:16:17.017Z,14.38
2023-05-18T11:18:52.194Z,14.38
2023-05-18T11:21:42.949Z,14.24
2023-05-18T11:24:18.790Z,14.34
2023-05-18T11:26:47.904Z,14.34
2023-05-18T11:29:40.845Z,14.27
2023-05-18T11:32:29.949Z,14.24
2023-05-18T11:34:56.967Z,14.12
2023-05-18T11:38:06.889Z,14.48
2023-05-18T11:40:50.124Z,14.69
2023-05-18T11:43:26.603Z,14.51
2023-05-18T11:45:57.305Z,14.37
2023-05-18T11:48:27.728Z,14.43
2023-05-18T11:50:57.878Z,14.57
2023-05-18T11:53:26.164Z,14.44
2023-05-18T11:55:59.749Z,14.70
2023-05-18T11:58:26.789Z,14.77
2023-05-18T12:00:54.692Z,14.71
2023-05-18T12:03:27.646Z,15.00
2023-05-18T12:05:58.396Z,14.97
2023-05-18T12:08:29.801Z,15.11
2023-05-18T12:10:57.692Z,15.31
2023-05-18T12:13:24.623Z,14.91
2023-05-18T12:15:52.339Z,15.18
2023-05-18T12:18:19.431Z,15.12
2023-05-18T12:20:48.201Z,15.38
2023-05-18T12:23:14.960Z,15.46
2023-05-18T12:25:41.723Z,15.26
2023-05-18T12:28:08.567Z,15.31
2023-05-18T12:30:36.313Z,15.47
2023-05-18T12:33:03.733Z,15.50
2023-05-18T12:35:31.522Z,15.42
2023-05-18T12:38:03.137Z,15.75
2023-05-18T12:40:44.893Z,15.48
2023-05-18T12:43:11.817Z,15.54
2023-05-18T12:45:38.736Z,15.68
2023-05-18T12:48:07.125Z,15.52
2023-05-18T12:50:35.126Z,15.62
2023-05-18T12:53:02.081Z,15.86
2023-05-18T12:55:31.340Z,15.93
2023-05-18T12:58:03.391Z,15.96
2023-05-18T13:00:34.073Z,15.89
2023-05-18T13:03:08.894Z,16.18
2023-05-18T13:05:37.477Z,16.31
2023-05-18T13:08:04.382Z,15.90
2023-05-18T13:10:35.171Z,15.80
2023-05-18T13:13:04.056Z,15.71
2023-05-18T13:15:36.006Z,15.80
2023-05-18T13:18:10.740Z,15.78
2023-05-18T13:20:50.003Z,15.76
2023-05-18T13:23:21.932Z,15.95
2023-05-18T13:25:49.219Z,15.99
2023-05-18T13:28:17.561Z,15.87
2023-05-18T13:30:45.392Z,15.65
2023-05-18T13:33:12.550Z,15.66
2023-05-18T13:35:44.739Z,15.84
2023-05-18T13:38:13.522Z,15.85
2023-05-18T13:40:41.450Z,16.32
2023-05-18T13:43:09.488Z,16.34
2023-05-18T13:45:37.846Z,15.98
2023-05-18T13:48:10.111Z,16.16
2023-05-18T13:50:38.032Z,16.57
2023-05-18T13:53:05.178Z,16.79
2023-05-18T13:55:33.695Z,16.75
2023-05-18T13:58:01.178Z,16.84
2023-05-18T14:00:28.372Z,16.83
2023-05-18T14:02:55.486Z,16.89
2023-05-18T14:05:22.605Z,16.84
2023-05-18T14:07:49.369Z,16.77
2023-05-18T14:10:16.089Z,16.79
2023-05-18T14:12:42.967Z,16.91
2023-05-18T14:15:10.747Z,17.02
2023-05-18T14:17:38.508Z,16.68
2023-05-18T14:20:06.374Z,16.24
2023-05-18T14:22:33.384Z,16.33
2023-05-18T14:25:01.133Z,16.42
2023-05-18T14:27:28.515Z,16.49
2023-05-18T14:29:55.579Z,16.40
2023-05-18T14:32:22.524Z,16.50
2023-05-18T14:34:52.195Z,16.44
2023-05-18T14:37:19.235Z,16.59
2023-05-18T14:39:46.046Z,16.67
2023-05-18T14:42:12.788Z,16.71
2023-05-18T14:44:39.595Z,16.39
2023-05-18T14:47:06.729Z,16.46
2023-05-18T14:49:33.729Z,16.59
2023-05-18T14:52:00.506Z,16.28
2023-05-18T14:54:27.278Z,16.24
2023-05-18T14:56:54.260Z,16.30
2023-05-18T14:59:21.704Z,16.39
2023-05-18T15:01:48.631Z,16.41
2023-05-18T15:04:15.478Z,16.63
2023-05-18T15:06:42.269Z,16.57
2023-05-18T15:09:10.186Z,16.70
2023-05-18T15:11:36.895Z,16.56
2023-05-18T15:14:03.710Z,16.70
2023-05-18T15:16:30.529Z,16.92
2023-05-18T15:18:57.502Z,17.08
2023-05-18T15:21:24.328Z,17.22
2023-05-18T15:23:51.212Z,17.37
2023-05-18T15:26:18.087Z,17.39
2023-05-18T15:28:45.270Z,17.01
2023-05-18T15:31:12.147Z,17.07
2023-05-18T15:33:42.744Z,17.20
2023-05-18T15:36:09.961Z,17.15
2023-05-18T15:38:36.880Z,17.12
2023-05-18T15:41:03.671Z,17.19
2023-05-18T15:43:30.984Z,16.97
2023-05-18T15:45:58.908Z,17.17
2023-05-18T15:48:26.052Z,17.39
2023-05-18T15:50:52.865Z,17.25
2023-05-18T15:53:19.735Z,17.51
2023-05-18T15:55:46.764Z,17.59
2023-05-18T15:58:13.749Z,17.40
2023-05-18T16:00:40.512Z,17.29
2023-05-18T16:03:07.795Z,17.30
2023-05-18T16:05:34.577Z,17.31
2023-05-18T16:08:01.650Z,16.89
2023-05-18T16:10:28.453Z,16.63
2023-05-18T16:12:55.257Z,16.47
2023-05-18T16:15:25.043Z,16.57
2023-05-18T16:17:51.839Z,16.25
2023-05-18T16:20:18.812Z,16.14
2023-05-18T16:22:47.044Z,16.32
2023-05-18T16:25:13.840Z,16.51
2023-05-18T16:27:40.604Z,16.57
2023-05-18T16:30:08.298Z,16.37
2023-05-18T16:32:35.034Z,16.63
2023-05-18T16:35:03.371Z,16.62
2023-05-18T16:37:31.144Z,16.34
2023-05-18T16:39:57.846Z,16.47
2023-05-18T16:42:24.679Z,16.64
2023-05-18T16:44:51.388Z,16.66
2023-05-18T16:47:18.134Z,16.58
2023-05-18T16:49:45.669Z,16.31
2023-05-18T16:52:12.503Z,16.20
2023-05-18T16:54:39.224Z,16.11
2023-05-18T16:57:06.473Z,16.18
2023-05-18T16:59:34.586Z,16.22
2023-05-18T17:02:01.737Z,15.93
2023-05-18T17:04:28.644Z,15.86
2023-05-18T17:06:55.433Z,15.85
2023-05-18T17:09:22.225Z,15.51
2023-05-18T17:11:49.052Z,15.48
2023-05-18T17:14:15.714Z,15.69
2023-05-18T17:16:42.732Z,15.78
2023-05-18T17:19:09.757Z,15.50
2023-05-18T17:21:36.603Z,15.50
2023-05-18T17:24:03.446Z,15.59
2023-05-18T17:26:33.862Z,15.45
2023-05-18T17:29:00.671Z,15.33
2023-05-18T17:31:27.516Z,15.39
2023-05-18T17:33:54.873Z,15.31
2023-05-18T17:36:21.604Z,15.51
2023-05-18T17:38:48.726Z,15.38
2023-05-18T17:41:15.888Z,15.32
2023-05-18T17:43:42.979Z,15.29
2023-05-18T17:46:09.739Z,15.16
2023-05-18T17:48:36.407Z,15.15
2023-05-18T17:51:03.744Z,15.18
2023-05-18T17:53:31.346Z,15.17
2023-05-18T17:55:58.275Z,14.91
2023-05-18T17:58:25.105Z,14.96
2023-05-18T18:00:51.845Z,15.06
2023-05-18T18:03:20.707Z,15.00
2023-05-18T18:05:47.516Z,14.98
2023-05-18T18:08:16.483Z,14.95
2023-05-18T18:10:43.350Z,14.79
2023-05-18T18:13:10.104Z,14.77
2023-05-18T18:15:36.896Z,14.82
2023-05-18T18:18:03.843Z,14.77
2023-05-18T18:20:35.914Z,14.69
2023-05-18T18:23:03.503Z,14.73
2023-05-18T18:25:30.814Z,14.63
2023-05-18T18:27:58.315Z,14.69
2023-05-18T18:30:25.508Z,14.56
2023-05-18T18:32:52.695Z,14.39
2023-05-18T18:35:19.654Z,14.35
2023-05-18T18:37:47.685Z,14.39
2023-05-18T18:40:18.255Z,14.36
2023-05-18T18:42:45.095Z,14.20
2023-05-18T18:45:12.180Z,14.13
2023-05-18T18:47:39.442Z,14.07
2023-05-18T18:50:07.572Z,13.98
2023-05-18T18:52:34.309Z,14.04
2023-05-18T18:55:01.480Z,13.90
2023-05-18T18:57:28.344Z,13.99
2023-05-18T18:59:55.027Z,14.00
2023-05-18T19:02:22.762Z,13.93
2023-05-18T19:04:49.548Z,13.82
2023-05-18T19:07:16.319Z,13.83
2023-05-18T19:09:43.089Z,13.80
2023-05-18T19:12:10.454Z,13.73
2023-05-18T19:14:37.156Z,13.69
2023-05-18T19:17:04.031Z,13.78
2023-05-18T19:19:32.984Z,13.61
2023-05-18T19:21:59.796Z,13.59
2023-05-18T19:24:26.532Z,13.68
2023-05-18T19:26:53.216Z,13.60
2023-05-18T19:29:20.950Z,13.50
2023-05-18T19:31:47.789Z,13.65
2023-05-18T19:34:14.556Z,13.53
2023-05-18T19:36:41.229Z,13.55
2023-05-18T19:39:07.943Z,13.44
2023-05-18T19:41:35.513Z,13.49
2023-05-18T19:44:02.693Z,13.53
2023-05-18T19:46:29.534Z,13.40
2023-05-18T19:48:56.681Z,13.48
2023-05-18T19:51:24.053Z,13.40
2023-05-18T19:53:50.824Z,13.35
2023-05-18T19:56:17.708Z,13.29
2023-05-18T19:58:44.516Z,13.31
2023-05-18T20:01:11.312Z,13.32
2023-05-18T20:03:40.181Z,13.37
2023-05-18T20:06:09.139Z,13.33
2023-05-18T20:08:35.845Z,13.39
2023-05-18T20:11:02.605Z,13.19
2023-05-18T20:13:30.469Z,13.17
2023-05-18T20:16:00.763Z,13.13
2023-05-18T20:18:29.050Z,12.97
2023-05-18T20:20:56.557Z,13.08
2023-05-18T20:23:23.610Z,13.08
2023-05-18T20:25:50.501Z,13.01
2023-05-18T20:28:17.840Z,12.99
2023-05-18T20:30:44.667Z,13.08
2023-05-18T20:33:12.733Z,12.76
2023-05-18T20:35:39.654Z,12.79
2023-05-18T20:38:07.574Z,12.88
2023-05-18T20:40:38.188Z,12.74
2023-05-18T20:43:06.322Z,12.79
2023-05-18T20:45:33.166Z,12.74
2023-05-18T20:48:00.436Z,12.69
2023-05-18T20:50:27.472Z,12.58
2023-05-18T20:52:54.720Z,12.62
2023-05-18T20:55:21.733Z,12.63
2023-05-18T20:57:51.602Z,12.54
2023-05-18T21:00:18.702Z,12.47
2023-05-18T21:02:47.124Z,12.54
2023-05-18T21:05:14.715Z,12.44
2023-05-18T21:07:41.547Z,12.37
2023-05-18T21:10:09.090Z,12.28
2023-05-18T21:12:35.899Z,12.38
2023-05-18T21:15:03.152Z,12.43
2023-05-18T21:17:30.955Z,12.30
2023-05-18T21:19:57.733Z,12.31
2023-05-18T21:22:24.564Z,12.39
2023-05-18T21:24:51.357Z,12.20
2023-05-18T21:27:18.056Z,12.18
2023-05-18T21:29:44.774Z,12.27
2023-05-18T21:32:11.710Z,12.22
2023-05-18T21:34:39.574Z,11.97
2023-05-18T21:37:08.307Z,12.02
2023-05-18T21:39:35.195Z,12.06
2023-05-18T21:42:02.871Z,12.04
2023-05-18T21:44:29.660Z,12.01
2023-05-18T21:46:58.130Z,12.04
2023-05-18T21:49:25.006Z,11.91
2023-05-18T21:51:51.916Z,11.96
2023-05-18T21:54:18.619Z,11.86
2023-05-18T21:56:45.401Z,11.88
2023-05-18T21:59:12.218Z,11.79
2023-05-18T22:01:38.953Z,11.90
2023-05-18T22:04:05.715Z,11.95
2023-05-18T22:06:32.554Z,11.94
2023-05-18T22:08:59.264Z,12.01
2023-05-18T22:11:25.969Z,11.79
2023-05-18T22:13:52.643Z,11.87
2023-05-18T22:16:19.591Z,11.81
2023-05-18T22:18:46.304Z,11.68
2023-05-18T22:21:13.039Z,11.61
2023-05-18T22:23:39.864Z,11.73
2023-05-18T22:26:07.307Z,11.75
2023-05-18T22:28:34.160Z,11.72
2023-05-18T22:31:01.484Z,11.64
2023-05-18T22:33:28.425Z,11.46
2023-05-18T22:35:55.075Z,11.66
2023-05-18T22:38:21.831Z,11.63
2023-05-18T22:40:54.153Z,11.89
2023-05-18T22:43:21.559Z,11.76
2023-05-18T22:45:48.882Z,11.77
2023-05-18T22:48:15.702Z,11.62
2023-05-18T22:50:42.673Z,11.47
2023-05-18T22:53:10.628Z,11.54
2023-05-18T22:55:37.650Z,11.55
2023-05-18T22:58:04.500Z,11.56
2023-05-18T23:00:31.614Z,11.55
2023-05-18T23:02:59.019Z,11.38
2023-05-18T23:05:26.965Z,11.35
2023-05-18T23:07:53.767Z,11.35
2023-05-18T23:10:20.476Z,11.23
2023-05-18T23:12:48.565Z,11.20
2023-05-18T23:15:15.697Z,11.25
2023-05-18T23:17:42.559Z,11.24
2023-05-18T23:20:11.657Z,11.48
2023-05-18T23:22:38.420Z,11.40
2023-05-18T23:25:08.959Z,11.09
2023-05-18T23:27:36.210Z,11.25
2023-05-18T23:30:03.495Z,11.17
2023-05-18T23:32:30.840Z,11.13
2023-05-18T23:34:58.824Z,11.13
2023-05-18T23:37:26.470Z,11.13
2023-05-18T23:39:53.578Z,11.08
2023-05-18T23:42:20.844Z,11.14
2023-05-18T23:44:48.514Z,10.97
2023-05-18T23:47:16.295Z,11.08
2023-05-18T23:49:44.159Z,11.12
2023-05-18T23:52:11.600Z,11.16
2023-05-18T23:54:38.897Z,11.17
2023-05-18T23:57:05.995Z,11.20
2023-05-18T23:59:33.009Z,11.10
